sensor_id;sensor_type;location;lat;lon;timestamp;P1;durP1;ratioP1;P2;durP2;ratioP2
71423;SDS011;59240;51.370;-0.486;2023-09-07T00:04:00;59.55;;;34.65;;
71423;SDS011;59240;51.370;-0.486;2023-09-07T00:09:00;65.88;;;36.70;;
71423;SDS011;59240;51.370;-0.486;2023-09-07T00:14:01;69.72;;;41.40;;
71423;SDS011;59240;51.370;-0.486;2023-09-07T00:18:59;67.07;;;39.22;;
71423;SDS011;59240;51.370;-0.486;2023-09-07T00:23:56;77.07;;;42.28;;
71423;SDS011;59240;51.370;-0.486;2023-09-07T00:28:52;76.90;;;42.00;;
71423;SDS011;59240;51.370;-0.486;2023-09-07T00:33:50;79.70;;;45.65;;
71423;SDS011;59240;51.370;-0.486;2023-09-07T00:38:46;87.15;;;45.05;;
71423;SDS011;59240;51.370;-0.486;2023-09-07T00:43:43;85.95;;;48.08;;
71423;SDS011;59240;51.370;-0.486;2023-09-07T00:48:40;93.38;;;48.95;;
71423;SDS011;59240;51.370;-0.486;2023-09-07T00:53:37;91.68;;;48.70;;
71423;SDS011;59240;51.370;-0.486;2023-09-07T00:58:34;96.43;;;49.13;;
71423;SDS011;59240;51.370;-0.486;2023-09-07T01:03:32;97.32;;;51.40;;
71423;SDS011;59240;51.370;-0.486;2023-09-07T01:08:35;97.15;;;49.15;;
71423;SDS011;59240;51.370;-0.486;2023-09-07T01:13:38;100.97;;;52.70;;
71423;SDS011;59240;51.370;-0.486;2023-09-07T01:18:36;98.28;;;53.80;;
71423;SDS011;59240;51.370;-0.486;2023-09-07T01:23:39;98.68;;;52.65;;
71423;SDS011;59240;51.370;-0.486;2023-09-07T01:28:38;99.70;;;51.65;;
71423;SDS011;59240;51.370;-0.486;2023-09-07T01:33:35;100.53;;;49.83;;
71423;SDS011;59240;51.370;-0.486;2023-09-07T01:38:31;99.55;;;53.78;;
71423;SDS011;59240;51.370;-0.486;2023-09-07T01:43:29;100.07;;;51.70;;
71423;SDS011;59240;51.370;-0.486;2023-09-07T01:48:26;103.03;;;53.53;;
71423;SDS011;59240;51.370;-0.486;2023-09-07T01:53:23;105.28;;;53.50;;
71423;SDS011;59240;51.370;-0.486;2023-09-07T01:58:20;116.32;;;58.00;;
71423;SDS011;59240;51.370;-0.486;2023-09-07T02:03:16;120.15;;;58.85;;
71423;SDS011;59240;51.370;-0.486;2023-09-07T02:08:13;116.07;;;55.60;;
71423;SDS011;59240;51.370;-0.486;2023-09-07T02:13:11;105.60;;;55.03;;
71423;SDS011;59240;51.370;-0.486;2023-09-07T02:18:08;109.15;;;56.83;;
71423;SDS011;59240;51.370;-0.486;2023-09-07T02:23:05;112.30;;;57.60;;
71423;SDS011;59240;51.370;-0.486;2023-09-07T02:28:02;109.93;;;54.72;;
71423;SDS011;59240;51.370;-0.486;2023-09-07T02:32:59;110.63;;;56.67;;
71423;SDS011;59240;51.370;-0.486;2023-09-07T02:37:56;110.20;;;55.65;;
71423;SDS011;59240;51.370;-0.486;2023-09-07T02:42:53;105.38;;;52.55;;
71423;SDS011;59240;51.370;-0.486;2023-09-07T02:47:50;98.95;;;52.05;;
71423;SDS011;59240;51.370;-0.486;2023-09-07T02:52:49;94.07;;;49.90;;
71423;SDS011;59240;51.370;-0.486;2023-09-07T02:57:45;100.88;;;50.53;;
71423;SDS011;59240;51.370;-0.486;2023-09-07T03:02:42;107.95;;;53.95;;
71423;SDS011;59240;51.370;-0.486;2023-09-07T03:07:39;96.95;;;51.83;;
71423;SDS011;59240;51.370;-0.486;2023-09-07T03:12:36;101.78;;;50.40;;
71423;SDS011;59240;51.370;-0.486;2023-09-07T03:17:33;106.22;;;55.80;;
71423;SDS011;59240;51.370;-0.486;2023-09-07T03:22:30;106.55;;;52.15;;
71423;SDS011;59240;51.370;-0.486;2023-09-07T03:27:27;92.78;;;49.38;;
71423;SDS011;59240;51.370;-0.486;2023-09-07T03:32:24;89.45;;;48.65;;
71423;SDS011;59240;51.370;-0.486;2023-09-07T03:37:23;104.65;;;52.92;;
71423;SDS011;59240;51.370;-0.486;2023-09-07T03:42:20;88.95;;;47.60;;
71423;SDS011;59240;51.370;-0.486;2023-09-07T03:47:17;97.93;;;51.97;;
71423;SDS011;59240;51.370;-0.486;2023-09-07T03:52:14;104.22;;;53.38;;
71423;SDS011;59240;51.370;-0.486;2023-09-07T03:57:10;91.82;;;50.83;;
71423;SDS011;59240;51.370;-0.486;2023-09-07T04:02:07;93.88;;;49.17;;
71423;SDS011;59240;51.370;-0.486;2023-09-07T04:07:04;95.70;;;49.15;;
71423;SDS011;59240;51.370;-0.486;2023-09-07T04:12:01;87.50;;;48.08;;
71423;SDS011;59240;51.370;-0.486;2023-09-07T04:17:00;90.72;;;48.92;;
71423;SDS011;59240;51.370;-0.486;2023-09-07T04:21:57;94.60;;;49.88;;
71423;SDS011;59240;51.370;-0.486;2023-09-07T04:26:58;90.45;;;45.97;;
71423;SDS011;59240;51.370;-0.486;2023-09-07T04:31:56;90.05;;;47.42;;
71423;SDS011;59240;51.370;-0.486;2023-09-07T04:36:53;88.25;;;49.42;;
71423;SDS011;59240;51.370;-0.486;2023-09-07T04:41:50;84.15;;;44.20;;
71423;SDS011;59240;51.370;-0.486;2023-09-07T04:46:48;83.07;;;45.00;;
71423;SDS011;59240;51.370;-0.486;2023-09-07T04:51:46;74.72;;;41.83;;
71423;SDS011;59240;51.370;-0.486;2023-09-07T04:56:43;84.38;;;42.85;;
71423;SDS011;59240;51.370;-0.486;2023-09-07T05:01:40;89.47;;;47.75;;
71423;SDS011;59240;51.370;-0.486;2023-09-07T05:06:38;85.82;;;46.35;;
71423;SDS011;59240;51.370;-0.486;2023-09-07T05:11:37;80.78;;;44.88;;
71423;SDS011;59240;51.370;-0.486;2023-09-07T05:16:34;87.95;;;46.03;;
71423;SDS011;59240;51.370;-0.486;2023-09-07T05:21:31;85.65;;;44.38;;
71423;SDS011;59240;51.370;-0.486;2023-09-07T05:26:27;80.57;;;42.33;;
71423;SDS011;59240;51.370;-0.486;2023-09-07T05:31:24;75.82;;;41.88;;
71423;SDS011;59240;51.370;-0.486;2023-09-07T05:36:21;79.05;;;43.38;;
71423;SDS011;59240;51.370;-0.486;2023-09-07T05:41:18;72.43;;;40.20;;
71423;SDS011;59240;51.370;-0.486;2023-09-07T05:46:15;87.30;;;43.85;;
71423;SDS011;59240;51.370;-0.486;2023-09-07T05:51:12;76.13;;;42.28;;
71423;SDS011;59240;51.370;-0.486;2023-09-07T05:56:09;75.40;;;41.50;;
71423;SDS011;59240;51.370;-0.486;2023-09-07T06:01:06;80.53;;;42.75;;
71423;SDS011;59240;51.370;-0.486;2023-09-07T06:06:03;83.57;;;41.28;;
71423;SDS011;59240;51.370;-0.486;2023-09-07T06:11:00;91.45;;;46.05;;
71423;SDS011;59240;51.370;-0.486;2023-09-07T06:15:57;81.40;;;46.92;;
71423;SDS011;59240;51.370;-0.486;2023-09-07T06:20:57;81.97;;;45.50;;
71423;SDS011;59240;51.370;-0.486;2023-09-07T06:25:54;88.72;;;49.40;;
71423;SDS011;59240;51.370;-0.486;2023-09-07T06:30:50;96.05;;;50.60;;
71423;SDS011;59240;51.370;-0.486;2023-09-07T06:35:47;92.57;;;47.10;;
71423;SDS011;59240;51.370;-0.486;2023-09-07T06:40:48;93.45;;;49.72;;
71423;SDS011;59240;51.370;-0.486;2023-09-07T06:45:46;92.03;;;50.33;;
71423;SDS011;59240;51.370;-0.486;2023-09-07T06:50:42;95.35;;;49.30;;
71423;SDS011;59240;51.370;-0.486;2023-09-07T06:55:39;88.25;;;48.67;;
71423;SDS011;59240;51.370;-0.486;2023-09-07T07:00:36;93.38;;;49.55;;
71423;SDS011;59240;51.370;-0.486;2023-09-07T07:05:33;83.53;;;48.78;;
71423;SDS011;59240;51.370;-0.486;2023-09-07T07:10:30;79.05;;;44.88;;
71423;SDS011;59240;51.370;-0.486;2023-09-07T07:15:30;89.25;;;49.80;;
71423;SDS011;59240;51.370;-0.486;2023-09-07T07:20:27;84.88;;;46.65;;
71423;SDS011;59240;51.370;-0.486;2023-09-07T07:25:24;80.00;;;45.53;;
71423;SDS011;59240;51.370;-0.486;2023-09-07T07:30:21;79.07;;;45.47;;
71423;SDS011;59240;51.370;-0.486;2023-09-07T07:35:18;77.55;;;44.15;;
71423;SDS011;59240;51.370;-0.486;2023-09-07T07:40:15;70.18;;;40.10;;
71423;SDS011;59240;51.370;-0.486;2023-09-07T07:45:12;69.28;;;40.28;;
71423;SDS011;59240;51.370;-0.486;2023-09-07T07:50:09;60.70;;;37.20;;
71423;SDS011;59240;51.370;-0.486;2023-09-07T07:55:06;60.75;;;36.70;;
71423;SDS011;59240;51.370;-0.486;2023-09-07T08:00:04;59.60;;;36.75;;
71423;SDS011;59240;51.370;-0.486;2023-09-07T08:05:02;60.03;;;33.72;;
71423;SDS011;59240;51.370;-0.486;2023-09-07T08:09:59;57.33;;;34.42;;
71423;SDS011;59240;51.370;-0.486;2023-09-07T08:14:56;52.80;;;32.92;;
71423;SDS011;59240;51.370;-0.486;2023-09-07T08:19:53;47.25;;;30.15;;
71423;SDS011;59240;51.370;-0.486;2023-09-07T08:24:53;45.42;;;28.67;;
71423;SDS011;59240;51.370;-0.486;2023-09-07T08:29:50;53.80;;;31.42;;
71423;SDS011;59240;51.370;-0.486;2023-09-07T08:34:48;42.55;;;28.10;;
71423;SDS011;59240;51.370;-0.486;2023-09-07T08:39:45;49.13;;;30.85;;
71423;SDS011;59240;51.370;-0.486;2023-09-07T08:44:42;42.22;;;28.27;;
71423;SDS011;59240;51.370;-0.486;2023-09-07T08:49:40;40.65;;;25.65;;
71423;SDS011;59240;51.370;-0.486;2023-09-07T08:54:41;42.38;;;27.50;;
71423;SDS011;59240;51.370;-0.486;2023-09-07T08:59:40;37.80;;;24.15;;
71423;SDS011;59240;51.370;-0.486;2023-09-07T09:04:37;39.17;;;23.58;;
71423;SDS011;59240;51.370;-0.486;2023-09-07T09:09:35;31.42;;;22.15;;
71423;SDS011;59240;51.370;-0.486;2023-09-07T09:14:35;36.53;;;22.23;;
71423;SDS011;59240;51.370;-0.486;2023-09-07T09:19:32;30.25;;;21.10;;
71423;SDS011;59240;51.370;-0.486;2023-09-07T09:24:33;28.83;;;18.75;;
71423;SDS011;59240;51.370;-0.486;2023-09-07T09:29:34;42.63;;;18.52;;
71423;SDS011;59240;51.370;-0.486;2023-09-07T09:34:33;27.75;;;18.60;;
71423;SDS011;59240;51.370;-0.486;2023-09-07T09:39:33;25.33;;;19.52;;
71423;SDS011;59240;51.370;-0.486;2023-09-07T09:44:31;25.70;;;16.95;;
71423;SDS011;59240;51.370;-0.486;2023-09-07T09:49:29;23.00;;;15.40;;
71423;SDS011;59240;51.370;-0.486;2023-09-07T09:54:26;21.60;;;15.52;;
71423;SDS011;59240;51.370;-0.486;2023-09-07T09:59:24;30.15;;;16.65;;
71423;SDS011;59240;51.370;-0.486;2023-09-07T10:04:21;22.45;;;16.40;;
71423;SDS011;59240;51.370;-0.486;2023-09-07T10:09:19;17.80;;;12.32;;
71423;SDS011;59240;51.370;-0.486;2023-09-07T10:14:16;19.10;;;12.90;;
71423;SDS011;59240;51.370;-0.486;2023-09-07T10:19:14;19.95;;;13.40;;
71423;SDS011;59240;51.370;-0.486;2023-09-07T10:29:22;17.42;;;13.40;;
71423;SDS011;59240;51.370;-0.486;2023-09-07T10:34:20;19.23;;;12.40;;
71423;SDS011;59240;51.370;-0.486;2023-09-07T10:39:19;17.05;;;12.60;;
71423;SDS011;59240;51.370;-0.486;2023-09-07T10:44:24;17.75;;;13.65;;
71423;SDS011;59240;51.370;-0.486;2023-09-07T10:49:23;18.08;;;11.77;;
71423;SDS011;59240;51.370;-0.486;2023-09-07T10:54:23;18.23;;;11.95;;
71423;SDS011;59240;51.370;-0.486;2023-09-07T10:59:21;18.38;;;12.63;;
71423;SDS011;59240;51.370;-0.486;2023-09-07T11:04:18;13.55;;;9.52;;
71423;SDS011;59240;51.370;-0.486;2023-09-07T11:09:19;13.77;;;10.82;;
71423;SDS011;59240;51.370;-0.486;2023-09-07T11:19:13;17.48;;;9.93;;
71423;SDS011;59240;51.370;-0.486;2023-09-07T11:24:11;13.50;;;8.77;;
71423;SDS011;59240;51.370;-0.486;2023-09-07T11:29:08;13.63;;;9.52;;
71423;SDS011;59240;51.370;-0.486;2023-09-07T11:34:12;9.60;;;8.00;;
71423;SDS011;59240;51.370;-0.486;2023-09-07T11:39:11;9.65;;;5.82;;
71423;SDS011;59240;51.370;-0.486;2023-09-07T11:44:11;8.98;;;6.15;;
71423;SDS011;59240;51.370;-0.486;2023-09-07T11:49:09;6.65;;;5.15;;
71423;SDS011;59240;51.370;-0.486;2023-09-07T11:54:06;9.15;;;5.55;;
71423;SDS011;59240;51.370;-0.486;2023-09-07T11:59:03;6.10;;;4.97;;
71423;SDS011;59240;51.370;-0.486;2023-09-07T12:04:00;8.63;;;6.57;;
71423;SDS011;59240;51.370;-0.486;2023-09-07T12:08:58;10.68;;;6.60;;
71423;SDS011;59240;51.370;-0.486;2023-09-07T12:13:56;8.80;;;5.30;;
71423;SDS011;59240;51.370;-0.486;2023-09-07T12:18:53;11.45;;;6.60;;
71423;SDS011;59240;51.370;-0.486;2023-09-07T12:23:50;7.53;;;5.68;;
71423;SDS011;59240;51.370;-0.486;2023-09-07T12:28:48;9.63;;;6.03;;
71423;SDS011;59240;51.370;-0.486;2023-09-07T12:33:45;8.15;;;5.20;;
71423;SDS011;59240;51.370;-0.486;2023-09-07T12:38:41;8.77;;;5.35;;
71423;SDS011;59240;51.370;-0.486;2023-09-07T12:43:38;5.57;;;4.80;;
71423;SDS011;59240;51.370;-0.486;2023-09-07T12:48:35;6.93;;;4.93;;
71423;SDS011;59240;51.370;-0.486;2023-09-07T12:53:32;6.18;;;4.60;;
71423;SDS011;59240;51.370;-0.486;2023-09-07T12:58:29;6.95;;;4.03;;
71423;SDS011;59240;51.370;-0.486;2023-09-07T13:03:26;7.18;;;4.13;;
71423;SDS011;59240;51.370;-0.486;2023-09-07T13:08:23;6.30;;;4.90;;
71423;SDS011;59240;51.370;-0.486;2023-09-07T13:13:20;7.80;;;4.18;;
71423;SDS011;59240;51.370;-0.486;2023-09-07T13:18:18;4.95;;;3.38;;
71423;SDS011;59240;51.370;-0.486;2023-09-07T13:23:16;3.83;;;2.55;;
71423;SDS011;59240;51.370;-0.486;2023-09-07T13:28:12;5.15;;;3.13;;
71423;SDS011;59240;51.370;-0.486;2023-09-07T13:33:09;3.35;;;3.05;;
71423;SDS011;59240;51.370;-0.486;2023-09-07T13:38:06;4.50;;;2.92;;
71423;SDS011;59240;51.370;-0.486;2023-09-07T13:43:03;5.30;;;3.15;;
71423;SDS011;59240;51.370;-0.486;2023-09-07T13:48:03;3.80;;;2.88;;
71423;SDS011;59240;51.370;-0.486;2023-09-07T13:53:00;6.43;;;3.47;;
71423;SDS011;59240;51.370;-0.486;2023-09-07T13:57:57;4.45;;;3.25;;
71423;SDS011;59240;51.370;-0.486;2023-09-07T14:02:54;4.30;;;2.58;;
71423;SDS011;59240;51.370;-0.486;2023-09-07T14:07:51;10.57;;;3.28;;
71423;SDS011;59240;51.370;-0.486;2023-09-07T14:12:48;4.68;;;3.08;;
71423;SDS011;59240;51.370;-0.486;2023-09-07T14:17:44;4.88;;;2.97;;
71423;SDS011;59240;51.370;-0.486;2023-09-07T14:22:41;4.20;;;2.97;;
71423;SDS011;59240;51.370;-0.486;2023-09-07T14:27:38;7.63;;;2.85;;
71423;SDS011;59240;51.370;-0.486;2023-09-07T14:32:35;10.00;;;3.25;;
71423;SDS011;59240;51.370;-0.486;2023-09-07T14:37:32;5.90;;;3.55;;
71423;SDS011;59240;51.370;-0.486;2023-09-07T14:42:29;3.90;;;2.97;;
71423;SDS011;59240;51.370;-0.486;2023-09-07T14:47:26;4.13;;;2.95;;
71423;SDS011;59240;51.370;-0.486;2023-09-07T14:52:23;4.65;;;3.38;;
71423;SDS011;59240;51.370;-0.486;2023-09-07T14:57:21;4.93;;;3.47;;
71423;SDS011;59240;51.370;-0.486;2023-09-07T15:02:18;4.68;;;2.90;;
71423;SDS011;59240;51.370;-0.486;2023-09-07T15:07:15;3.25;;;2.75;;
71423;SDS011;59240;51.370;-0.486;2023-09-07T15:12:12;4.57;;;3.05;;
71423;SDS011;59240;51.370;-0.486;2023-09-07T15:17:09;5.72;;;2.72;;
71423;SDS011;59240;51.370;-0.486;2023-09-07T15:22:06;3.55;;;2.72;;
71423;SDS011;59240;51.370;-0.486;2023-09-07T15:27:09;9.07;;;3.13;;
71423;SDS011;59240;51.370;-0.486;2023-09-07T15:32:06;5.20;;;3.00;;
71423;SDS011;59240;51.370;-0.486;2023-09-07T15:37:03;4.40;;;3.08;;
71423;SDS011;59240;51.370;-0.486;2023-09-07T15:42:01;6.85;;;3.13;;
71423;SDS011;59240;51.370;-0.486;2023-09-07T15:46:58;4.47;;;3.13;;
71423;SDS011;59240;51.370;-0.486;2023-09-07T15:51:55;6.57;;;3.30;;
71423;SDS011;59240;51.370;-0.486;2023-09-07T15:56:52;4.65;;;3.30;;
71423;SDS011;59240;51.370;-0.486;2023-09-07T16:01:57;5.38;;;3.28;;
71423;SDS011;59240;51.370;-0.486;2023-09-07T16:06:54;5.18;;;3.55;;
71423;SDS011;59240;51.370;-0.486;2023-09-07T16:11:50;4.13;;;3.35;;
71423;SDS011;59240;51.370;-0.486;2023-09-07T16:16:49;5.03;;;3.30;;
71423;SDS011;59240;51.370;-0.486;2023-09-07T16:21:45;4.38;;;2.90;;
71423;SDS011;59240;51.370;-0.486;2023-09-07T16:26:42;7.65;;;3.22;;
71423;SDS011;59240;51.370;-0.486;2023-09-07T16:31:39;3.85;;;3.05;;
71423;SDS011;59240;51.370;-0.486;2023-09-07T16:36:36;4.07;;;3.47;;
71423;SDS011;59240;51.370;-0.486;2023-09-07T16:41:33;4.90;;;3.45;;
71423;SDS011;59240;51.370;-0.486;2023-09-07T16:46:30;6.90;;;3.38;;
71423;SDS011;59240;51.370;-0.486;2023-09-07T16:51:27;5.20;;;3.30;;
71423;SDS011;59240;51.370;-0.486;2023-09-07T16:56:24;5.15;;;3.17;;
71423;SDS011;59240;51.370;-0.486;2023-09-07T17:01:24;6.90;;;3.72;;
71423;SDS011;59240;51.370;-0.486;2023-09-07T17:06:22;4.90;;;3.28;;
71423;SDS011;59240;51.370;-0.486;2023-09-07T17:11:19;5.60;;;2.95;;
71423;SDS011;59240;51.370;-0.486;2023-09-07T17:16:16;5.10;;;3.20;;
71423;SDS011;59240;51.370;-0.486;2023-09-07T17:21:12;5.75;;;3.50;;
71423;SDS011;59240;51.370;-0.486;2023-09-07T17:26:09;5.57;;;4.05;;
71423;SDS011;59240;51.370;-0.486;2023-09-07T17:31:16;10.80;;;6.50;;
71423;SDS011;59240;51.370;-0.486;2023-09-07T17:36:17;11.68;;;5.70;;
71423;SDS011;59240;51.370;-0.486;2023-09-07T17:41:15;9.65;;;5.78;;
71423;SDS011;59240;51.370;-0.486;2023-09-07T17:46:11;12.73;;;6.68;;
71423;SDS011;59240;51.370;-0.486;2023-09-07T17:51:09;14.80;;;7.45;;
71423;SDS011;59240;51.370;-0.486;2023-09-07T17:56:06;7.80;;;4.63;;
71423;SDS011;59240;51.370;-0.486;2023-09-07T18:01:04;5.07;;;4.00;;
71423;SDS011;59240;51.370;-0.486;2023-09-07T18:06:01;5.03;;;3.40;;
71423;SDS011;59240;51.370;-0.486;2023-09-07T18:10:58;6.50;;;3.47;;
71423;SDS011;59240;51.370;-0.486;2023-09-07T18:15:56;7.93;;;3.72;;
71423;SDS011;59240;51.370;-0.486;2023-09-07T18:20:53;6.53;;;3.70;;
71423;SDS011;59240;51.370;-0.486;2023-09-07T18:25:50;8.02;;;4.32;;
71423;SDS011;59240;51.370;-0.486;2023-09-07T18:30:47;6.90;;;4.03;;
71423;SDS011;59240;51.370;-0.486;2023-09-07T18:35:44;5.50;;;4.28;;
71423;SDS011;59240;51.370;-0.486;2023-09-07T18:40:43;8.38;;;4.05;;
71423;SDS011;59240;51.370;-0.486;2023-09-07T18:45:42;6.72;;;4.15;;
71423;SDS011;59240;51.370;-0.486;2023-09-07T18:50:39;5.97;;;4.22;;
71423;SDS011;59240;51.370;-0.486;2023-09-07T18:55:39;7.07;;;3.92;;
71423;SDS011;59240;51.370;-0.486;2023-09-07T19:00:36;7.97;;;4.40;;
71423;SDS011;59240;51.370;-0.486;2023-09-07T19:05:33;7.75;;;4.10;;
71423;SDS011;59240;51.370;-0.486;2023-09-07T19:10:30;9.73;;;5.07;;
71423;SDS011;59240;51.370;-0.486;2023-09-07T19:15:27;8.65;;;5.00;;
71423;SDS011;59240;51.370;-0.486;2023-09-07T19:20:24;7.25;;;4.70;;
71423;SDS011;59240;51.370;-0.486;2023-09-07T19:25:21;9.00;;;4.43;;
71423;SDS011;59240;51.370;-0.486;2023-09-07T19:30:18;9.95;;;5.82;;
71423;SDS011;59240;51.370;-0.486;2023-09-07T19:35:14;8.80;;;4.75;;
71423;SDS011;59240;51.370;-0.486;2023-09-07T19:40:11;7.47;;;3.83;;
71423;SDS011;59240;51.370;-0.486;2023-09-07T19:45:08;6.25;;;4.00;;
71423;SDS011;59240;51.370;-0.486;2023-09-07T19:50:06;11.18;;;4.10;;
71423;SDS011;59240;51.370;-0.486;2023-09-07T19:55:04;9.98;;;3.92;;
71423;SDS011;59240;51.370;-0.486;2023-09-07T20:00:01;5.88;;;4.05;;
71423;SDS011;59240;51.370;-0.486;2023-09-07T20:05:00;8.00;;;3.80;;
71423;SDS011;59240;51.370;-0.486;2023-09-07T20:09:56;5.40;;;3.53;;
71423;SDS011;59240;51.370;-0.486;2023-09-07T20:14:54;5.70;;;3.08;;
71423;SDS011;59240;51.370;-0.486;2023-09-07T20:19:50;7.40;;;3.90;;
71423;SDS011;59240;51.370;-0.486;2023-09-07T20:24:47;6.30;;;3.58;;
71423;SDS011;59240;51.370;-0.486;2023-09-07T20:29:44;6.43;;;4.10;;
71423;SDS011;59240;51.370;-0.486;2023-09-07T20:34:41;7.07;;;3.22;;
71423;SDS011;59240;51.370;-0.486;2023-09-07T20:39:38;10.65;;;3.50;;
71423;SDS011;59240;51.370;-0.486;2023-09-07T20:44:35;5.82;;;3.42;;
71423;SDS011;59240;51.370;-0.486;2023-09-07T20:49:32;6.50;;;3.30;;
71423;SDS011;59240;51.370;-0.486;2023-09-07T20:54:29;8.35;;;3.42;;
71423;SDS011;59240;51.370;-0.486;2023-09-07T20:59:29;5.40;;;3.45;;
71423;SDS011;59240;51.370;-0.486;2023-09-07T21:04:26;5.10;;;3.08;;
71423;SDS011;59240;51.370;-0.486;2023-09-07T21:09:23;6.95;;;3.53;;
71423;SDS011;59240;51.370;-0.486;2023-09-07T21:14:20;7.60;;;3.30;;
71423;SDS011;59240;51.370;-0.486;2023-09-07T21:19:17;7.00;;;3.60;;
71423;SDS011;59240;51.370;-0.486;2023-09-07T21:24:14;4.53;;;2.78;;
71423;SDS011;59240;51.370;-0.486;2023-09-07T21:29:10;4.07;;;3.08;;
71423;SDS011;59240;51.370;-0.486;2023-09-07T21:34:07;4.60;;;3.65;;
71423;SDS011;59240;51.370;-0.486;2023-09-07T21:39:05;11.02;;;3.92;;
71423;SDS011;59240;51.370;-0.486;2023-09-07T21:44:02;8.85;;;4.25;;
71423;SDS011;59240;51.370;-0.486;2023-09-07T21:48:59;5.97;;;3.42;;
71423;SDS011;59240;51.370;-0.486;2023-09-07T21:53:57;7.55;;;4.00;;
71423;SDS011;59240;51.370;-0.486;2023-09-07T21:58:55;12.82;;;4.20;;
71423;SDS011;59240;51.370;-0.486;2023-09-07T22:03:52;8.40;;;4.60;;
71423;SDS011;59240;51.370;-0.486;2023-09-07T22:08:52;14.52;;;4.32;;
71423;SDS011;59240;51.370;-0.486;2023-09-07T22:13:49;15.45;;;4.68;;
71423;SDS011;59240;51.370;-0.486;2023-09-07T22:18:46;5.50;;;4.20;;
71423;SDS011;59240;51.370;-0.486;2023-09-07T22:23:43;7.50;;;4.85;;
71423;SDS011;59240;51.370;-0.486;2023-09-07T22:28:40;7.05;;;4.55;;
71423;SDS011;59240;51.370;-0.486;2023-09-07T22:33:37;7.95;;;4.72;;
71423;SDS011;59240;51.370;-0.486;2023-09-07T22:38:34;6.43;;;4.18;;
71423;SDS011;59240;51.370;-0.486;2023-09-07T22:43:31;7.38;;;4.20;;
71423;SDS011;59240;51.370;-0.486;2023-09-07T22:48:28;5.55;;;4.00;;
71423;SDS011;59240;51.370;-0.486;2023-09-07T22:53:25;6.82;;;3.95;;
71423;SDS011;59240;51.370;-0.486;2023-09-07T22:58:22;6.28;;;4.13;;
71423;SDS011;59240;51.370;-0.486;2023-09-07T23:03:19;7.13;;;4.20;;
71423;SDS011;59240;51.370;-0.486;2023-09-07T23:08:18;9.00;;;4.57;;
71423;SDS011;59240;51.370;-0.486;2023-09-07T23:13:15;7.38;;;4.82;;
71423;SDS011;59240;51.370;-0.486;2023-09-07T23:18:12;5.63;;;4.35;;
71423;SDS011;59240;51.370;-0.486;2023-09-07T23:23:09;8.48;;;4.30;;
71423;SDS011;59240;51.370;-0.486;2023-09-07T23:28:06;6.25;;;4.28;;
71423;SDS011;59240;51.370;-0.486;2023-09-07T23:33:03;5.65;;;4.28;;
71423;SDS011;59240;51.370;-0.486;2023-09-07T23:38:02;8.20;;;4.80;;
71423;SDS011;59240;51.370;-0.486;2023-09-07T23:42:59;7.07;;;4.43;;
71423;SDS011;59240;51.370;-0.486;2023-09-07T23:47:56;7.68;;;4.47;;
71423;SDS011;59240;51.370;-0.486;2023-09-07T23:52:53;5.85;;;3.90;;
71423;SDS011;59240;51.370;-0.486;2023-09-07T23:57:50;8.65;;;4.45;;
